createdAt,value
2023-03-12T00:07:59.782Z,97866.48
2023-03-12T00:18:07.399Z,97865.34
2023-03-12T00:28:14.602Z,97867.10
2023-03-12T00:38:22.879Z,97870.80
2023-03-12T00:48:30.550Z,97870.33
2023-03-12T00:58:36.614Z,97869.27
2023-03-12T01:08:43.929Z,97870.45
2023-03-12T01:18:51.037Z,97875.29
2023-03-12T01:28:58.010Z,97874.85
2023-03-12T01:39:05.638Z,97871.83
2023-03-12T01:49:15.688Z,97865.79
2023-03-12T01:59:24.538Z,97872.67
2023-03-12T02:09:33.960Z,97882.14
2023-03-12T02:19:39.297Z,97887.38
2023-03-12T02:29:47.928Z,97898.81
2023-03-12T02:39:53.356Z,97902.41
2023-03-12T02:50:00.418Z,97904.33
2023-03-12T03:00:12.340Z,97911.63
2023-03-12T03:10:18.722Z,97923.11
2023-03-12T03:20:27.021Z,97934.98
2023-03-12T03:30:34.470Z,97942.98
2023-03-12T03:40:41.593Z,97950.02
2023-03-12T03:50:49.330Z,97954.75
2023-03-12T04:00:57.240Z,97962.08
2023-03-12T04:11:08.138Z,97967.58
2023-03-12T04:21:16.626Z,97972.77
2023-03-12T04:31:23.943Z,97977.91
2023-03-12T04:41:31.327Z,97993.61
2023-03-12T04:51:37.789Z,98003.52
2023-03-12T05:01:45.199Z,98009.48
2023-03-12T05:11:52.182Z,98015.86
2023-03-12T05:21:59.339Z,98028.05
2023-03-12T05:32:05.792Z,98034.80
2023-03-12T05:42:12.884Z,98028.31
2023-03-12T05:52:19.866Z,98041.38
2023-03-12T06:02:27.076Z,98053.20
2023-03-12T06:12:34.460Z,98051.88
2023-03-12T06:22:41.880Z,98057.77
2023-03-12T06:32:49.022Z,98069.20
2023-03-12T06:42:56.239Z,98087.14
2023-03-12T06:53:03.303Z,98099.05
2023-03-12T07:03:10.701Z,98099.16
2023-03-12T07:13:18.108Z,98095.52
2023-03-12T07:23:25.886Z,98105.94
2023-03-12T07:33:33.328Z,98122.39
2023-03-12T07:43:40.828Z,98121.14
2023-03-12T07:53:49.069Z,98125.98
2023-03-12T08:03:56.245Z,98127.52
2023-03-12T08:14:03.961Z,98137.12
2023-03-12T08:24:08.975Z,98146.30
2023-03-12T08:34:15.960Z,98157.48
2023-03-12T08:44:23.179Z,98164.98
2023-03-12T08:54:30.653Z,98157.88
2023-03-12T09:04:37.788Z,98154.79
2023-03-12T09:25:14.312Z,98159.20
2023-03-12T09:35:21.804Z,98168.77
2023-03-12T09:45:28.994Z,98168.16
2023-03-12T09:55:38.291Z,98164.27
2023-03-12T10:05:47.205Z,98169.73
2023-03-12T10:15:56.980Z,98177.30
2023-03-12T10:26:05.960Z,98187.83
2023-03-12T10:36:16.899Z,98185.86
2023-03-12T10:46:51.759Z,98190.42
2023-03-12T10:56:59.302Z,98188.54
2023-03-12T11:07:08.542Z,98195.39
2023-03-12T11:17:21.234Z,98193.90
2023-03-12T11:27:28.660Z,98192.83
2023-03-12T11:37:38.154Z,98183.52
2023-03-12T11:47:49.973Z,98171.63
2023-03-12T11:57:59.057Z,98176.89
2023-03-12T12:08:25.206Z,98180.13
2023-03-12T12:18:41.651Z,98172.44
2023-03-12T12:29:09.280Z,98170.50
2023-03-12T12:39:14.338Z,98178.67
2023-03-12T12:49:27.455Z,98173.83
2023-03-12T12:59:34.449Z,98166.53
2023-03-12T13:09:44.862Z,98163.31
2023-03-12T13:19:55.748Z,98169.54
2023-03-12T13:30:38.812Z,98166.38
2023-03-12T13:41:03.310Z,98170.89
2023-03-12T13:51:18.303Z,98176.52
2023-03-12T14:01:32.535Z,98182.21
2023-03-12T14:11:48.549Z,98187.63
2023-03-12T14:21:58.134Z,98199.70
2023-03-12T14:32:14.254Z,98211.41
2023-03-12T14:42:26.563Z,98222.77
2023-03-12T14:52:32.887Z,98207.42
2023-03-12T15:02:40.897Z,98207.18
2023-03-12T15:12:49.960Z,98224.64
2023-03-12T15:22:58.563Z,98214.04
2023-03-12T15:33:12.805Z,98211.60
2023-03-12T15:43:17.948Z,98217.27
2023-03-12T15:53:25.895Z,98207.58
2023-03-12T16:03:33.159Z,98208.48
2023-03-12T16:13:42.223Z,98211.36
2023-03-12T16:23:50.101Z,98207.88
2023-03-12T16:33:57.471Z,98201.77
2023-03-12T16:44:08.191Z,98200.39
2023-03-12T16:54:15.685Z,98202.88
2023-03-12T17:14:32.151Z,98203.81
2023-03-12T17:24:40.086Z,98214.21
2023-03-12T17:34:47.504Z,98229.48
2023-03-12T17:44:54.842Z,98211.05
2023-03-12T17:55:02.154Z,98209.20
2023-03-12T18:05:08.226Z,98200.61
2023-03-12T18:15:16.982Z,98187.88
2023-03-12T18:25:24.326Z,98198.79
2023-03-12T18:35:31.937Z,98192.23
2023-03-12T18:45:42.510Z,98193.34
2023-03-12T18:55:52.073Z,98198.61
2023-03-12T19:06:02.603Z,98204.25
2023-03-12T19:16:08.630Z,98189.38
2023-03-12T19:26:16.271Z,98158.58
2023-03-12T19:36:23.579Z,98168.63
2023-03-12T19:46:31.549Z,98190.48
2023-03-12T19:56:38.996Z,98170.70
2023-03-12T20:06:44.233Z,98165.61
2023-03-12T20:16:51.573Z,98152.08
2023-03-12T20:26:58.847Z,98137.41
2023-03-12T20:37:06.051Z,98113.11
2023-03-12T20:47:13.376Z,98099.08
2023-03-12T20:57:20.659Z,98092.84
2023-03-12T21:07:27.988Z,98088.39
2023-03-12T21:17:34.266Z,98084.98
2023-03-12T21:27:50.534Z,98080.47
2023-03-12T21:37:59.194Z,98067.83
2023-03-12T21:48:06.671Z,98072.48
2023-03-12T21:58:13.826Z,98067.73
2023-03-12T22:08:20.947Z,98063.81
2023-03-12T22:18:29.432Z,98064.14
2023-03-12T22:28:37.155Z,98061.47
2023-03-12T22:38:45.032Z,98049.67
2023-03-12T22:48:56.505Z,98045.63
2023-03-12T22:59:03.532Z,98042.50
2023-03-12T23:09:10.890Z,98058.48
2023-03-12T23:19:16.943Z,98065.16
2023-03-12T23:29:24.368Z,98053.52
2023-03-12T23:39:35.361Z,98048.60
2023-03-12T23:49:46.545Z,98044.88
2023-03-12T23:59:53.905Z,98033.54
